Time;durP1;ratioP1;P1;durP2;ratioP2;P2;SDS_P1;SDS_P2;PMS_P1;PMS_P2;Temp;Humidity;BMP_temperature;BMP_pressure;BME280_temperature;BME280_humidity;BME280_pressure;Samples;Min_cycle;Max_cycle;Signal;HPM_P1;HPM_P2
2023/10/09 00:02:34;;;;;;;8.00;4.07;;;;;11.70;96951.00;;;;8219635;28;20236;-68
2023/10/09 00:06:38;;;;;;;5.22;4.10;;;;;11.80;96948.00;;;;8208833;28;20680;-68
2023/10/09 00:10:49;;;;;;;7.28;3.95;;;;;11.80;96935.00;;;;8226760;28;20231;-68
2023/10/09 00:14:55;;;;;;;8.65;4.53;;;;;11.80;96935.00;;;;8221743;28;20204;-68
2023/10/09 00:19:13;;;;;;;10.77;4.50;;;;;11.70;96922.00;;;;8222901;28;20239;-68
2023/10/09 00:23:17;;;;;;;11.00;4.35;;;;;11.80;96921.00;;;;8213096;28;20202;-68
2023/10/09 00:27:31;;;;;;;5.00;4.00;;;;;11.80;96915.00;;;;8220238;28;20222;-68
2023/10/09 00:31:35;;;;;;;9.73;4.50;;;;;11.70;96910.00;;;;8227796;28;20227;-68
2023/10/09 00:35:54;;;;;;;14.48;5.03;;;;;11.70;96912.00;;;;8227618;28;20214;-68
2023/10/09 00:39:57;;;;;;;9.57;5.15;;;;;11.70;96910.00;;;;8217677;28;20214;-68
2023/10/09 00:44:07;;;;;;;8.80;4.93;;;;;11.60;96897.00;;;;8217579;28;20204;-68
2023/10/09 00:48:14;;;;;;;9.07;5.33;;;;;11.70;96899.00;;;;8214144;28;20197;-68
2023/10/09 00:52:26;;;;;;;9.45;5.47;;;;;11.80;96891.00;;;;8218399;28;20318;-68
2023/10/09 00:56:38;;;;;;;11.65;5.70;;;;;11.90;96895.00;;;;8214268;28;20199;-69
2023/10/09 01:00:46;;;;;;;14.15;6.07;;;;;12.00;96891.00;;;;8222705;28;20549;-69
2023/10/09 01:04:49;;;;;;;15.68;6.13;;;;;12.20;96873.00;;;;8223485;28;20227;-68
2023/10/09 01:09:08;;;;;;;10.50;6.60;;;;;12.30;96871.00;;;;8216932;28;20199;-69
2023/10/09 01:13:11;;;;;;;14.63;5.78;;;;;12.30;96860.00;;;;8215342;28;20203;-68
2023/10/09 01:17:29;;;;;;;13.20;5.47;;;;;12.40;96861.00;;;;8225193;28;20278;-68
2023/10/09 01:21:32;;;;;;;12.13;5.50;;;;;12.40;96847.00;;;;8225515;28;20200;-69
2023/10/09 01:25:44;;;;;;;9.80;5.60;;;;;12.40;96846.00;;;;8222972;28;20894;-69
2023/10/09 01:29:47;;;;;;;10.07;5.82;;;;;12.40;96845.00;;;;8228836;28;20600;-69
2023/10/09 01:33:50;;;;;;;13.32;5.70;;;;;12.40;96833.00;;;;8221581;28;20214;-69
2023/10/09 01:37:53;;;;;;;11.52;5.65;;;;;12.50;96839.00;;;;8211173;28;20884;-69
2023/10/09 01:42:05;;;;;;;14.32;5.82;;;;;12.50;96835.00;;;;8225050;28;20228;-69
2023/10/09 01:46:10;;;;;;;20.95;6.88;;;;;12.50;96824.00;;;;8202898;28;20199;-68
2023/10/09 01:50:20;;;;;;;12.25;5.70;;;;;12.50;96833.00;;;;8212951;28;20268;-68
2023/10/09 01:54:36;;;;;;;13.95;6.65;;;;;12.60;96827.00;;;;8210155;28;20205;-68
2023/10/09 01:58:41;;;;;;;14.00;6.22;;;;;12.60;96821.00;;;;8210127;28;20289;-69
2023/10/09 02:02:45;;;;;;;19.35;7.10;;;;;12.70;96812.00;;;;8215940;28;20258;-68
2023/10/09 02:06:51;;;;;;;16.15;6.80;;;;;12.70;96804.00;;;;8209824;28;20801;-69
2023/10/09 02:10:56;;;;;;;15.73;6.60;;;;;12.80;96793.00;;;;8218950;28;20309;-69
2023/10/09 02:15:06;;;;;;;17.52;7.75;;;;;12.80;96789.00;;;;8209670;28;20205;-69
2023/10/09 02:19:28;;;;;;;14.38;6.75;;;;;12.80;96800.00;;;;8217205;28;20204;-69
2023/10/09 02:23:40;;;;;;;17.15;7.30;;;;;12.80;96793.00;;;;8214276;28;20201;-69
2023/10/09 02:27:53;;;;;;;14.52;7.18;;;;;12.80;96786.00;;;;8210474;28;20240;-69
2023/10/09 02:32:09;;;;;;;13.77;7.60;;;;;12.90;96791.00;;;;8219291;28;20231;-69
2023/10/09 02:36:16;;;;;;;15.35;6.97;;;;;13.00;96785.00;;;;8218083;28;20202;-69
2023/10/09 02:40:25;;;;;;;18.50;7.45;;;;;13.00;96782.00;;;;8215656;28;20205;-69
2023/10/09 02:44:31;;;;;;;14.40;6.57;;;;;13.00;96776.00;;;;8213462;28;20256;-69
2023/10/09 02:48:37;;;;;;;19.95;7.45;;;;;13.00;96777.00;;;;8219264;28;20209;-68
2023/10/09 02:52:41;;;;;;;18.85;8.15;;;;;13.00;96764.00;;;;8223145;28;20259;-69
2023/10/09 02:56:47;;;;;;;19.60;8.15;;;;;13.00;96765.00;;;;8227401;28;20918;-69
2023/10/09 03:00:51;;;;;;;19.02;7.68;;;;;13.00;96764.00;;;;8225721;28;20208;-68
2023/10/09 03:04:56;;;;;;;19.35;8.52;;;;;13.00;96753.00;;;;8246151;22;20827;-68
2023/10/09 03:08:59;;;;;;;16.17;7.38;;;;;13.10;96742.00;;;;8218020;28;20324;-68
2023/10/09 03:13:05;;;;;;;24.10;7.85;;;;;13.20;96747.00;;;;8217898;28;20766;-68
2023/10/09 03:17:11;;;;;;;19.23;8.57;;;;;13.20;96740.00;;;;8209693;28;20216;-69
2023/10/09 03:21:17;;;;;;;25.38;9.23;;;;;13.20;96734.00;;;;8210830;28;20211;-68
2023/10/09 03:25:20;;;;;;;22.00;8.00;;;;;13.30;96732.00;;;;8217911;28;20239;-69
2023/10/09 03:29:23;;;;;;;18.58;7.72;;;;;13.30;96728.00;;;;8217486;28;20284;-68
2023/10/09 03:33:27;;;;;;;20.27;8.32;;;;;13.40;96729.00;;;;8219539;28;20268;-68
2023/10/09 03:37:34;;;;;;;24.00;8.90;;;;;13.40;96731.00;;;;8218313;28;20198;-69
2023/10/09 03:41:41;;;;;;;20.70;8.25;;;;;13.40;96732.00;;;;8215574;28;20289;-68
2023/10/09 03:45:52;;;;;;;21.20;8.05;;;;;13.40;96741.00;;;;8204592;28;20201;-69
2023/10/09 03:49:55;;;;;;;23.65;8.15;;;;;13.40;96741.00;;;;8217618;28;20863;-69
2023/10/09 03:54:05;;;;;;;19.55;7.90;;;;;13.40;96741.00;;;;8208687;28;20261;-69
2023/10/09 03:58:11;;;;;;;25.02;8.75;;;;;13.30;96735.00;;;;8216979;28;20244;-69
2023/10/09 04:02:17;;;;;;;23.27;7.63;;;;;13.30;96735.00;;;;8211678;28;20246;-69
2023/10/09 04:06:21;;;;;;;16.52;7.30;;;;;13.30;96726.00;;;;8216113;28;20296;-68
2023/10/09 04:10:43;;;;;;;20.67;8.48;;;;;13.30;96736.00;;;;8216006;28;20245;-69
2023/10/09 04:14:54;;;;;;;27.38;8.50;;;;;13.30;96735.00;;;;8212435;28;20295;-68
2023/10/09 04:18:58;;;;;;;29.25;9.55;;;;;13.30;96729.00;;;;8208902;28;20234;-68
2023/10/09 04:23:05;;;;;;;17.73;8.55;;;;;13.30;96719.00;;;;8205368;28;20640;-68
2023/10/09 04:27:10;;;;;;;23.02;9.00;;;;;13.30;96721.00;;;;8216409;28;20202;-69
2023/10/09 04:31:17;;;;;;;20.02;8.32;;;;;13.30;96700.00;;;;8206499;28;20274;-69
2023/10/09 04:35:23;;;;;;;26.35;10.10;;;;;13.20;96701.00;;;;8214444;28;20237;-69
2023/10/09 04:39:37;;;;;;;18.88;8.85;;;;;13.20;96686.00;;;;8206736;28;20911;-69
2023/10/09 04:43:44;;;;;;;27.30;8.80;;;;;13.20;96685.00;;;;8211952;28;20824;-69
2023/10/09 04:47:57;;;;;;;23.35;9.60;;;;;13.10;96680.00;;;;8210619;28;20216;-69
2023/10/09 04:52:08;;;;;;;27.15;10.23;;;;;13.10;96678.00;;;;8217586;28;20253;-66
2023/10/09 04:56:15;;;;;;;24.85;8.60;;;;;13.00;96681.00;;;;8213851;28;20207;-66
2023/10/09 05:00:46;;;;;;;26.80;9.13;;;;;13.00;96678.00;;;;8211987;28;20246;-66
2023/10/09 05:04:51;;;;;;;29.13;9.45;;;;;13.00;96665.00;;;;8213969;28;20244;-66
2023/10/09 05:08:55;;;;;;;25.77;9.40;;;;;13.00;96664.00;;;;8211260;28;20817;-66
2023/10/09 05:12:58;;;;;;;20.92;9.40;;;;;12.90;96660.00;;;;8215039;28;20268;-66
2023/10/09 05:17:03;;;;;;;30.25;9.43;;;;;12.90;96660.00;;;;8213181;28;20234;-66
2023/10/09 05:21:35;;;;;;;21.35;8.93;;;;;12.90;96655.00;;;;8214582;28;20292;-66
2023/10/09 05:25:53;;;;;;;32.90;9.40;;;;;12.90;96649.00;;;;8213320;28;20198;-67
2023/10/09 05:30:12;;;;;;;19.08;9.25;;;;;12.80;96648.00;;;;8212906;28;20212;-66
2023/10/09 05:34:19;;;;;;;29.45;10.10;;;;;12.90;96649.00;;;;8214333;28;20291;-73
2023/10/09 05:38:24;;;;;;;22.50;8.43;;;;;13.00;96654.00;;;;8214752;28;20209;-74
2023/10/09 05:42:42;;;;;;;23.15;8.50;;;;;13.00;96651.00;;;;8213133;28;20265;-65
2023/10/09 05:47:22;;;;;;;22.80;7.85;;;;;13.10;96668.00;;;;8212041;28;20205;-65
2023/10/09 05:51:41;;;;;;;21.23;8.02;;;;;13.10;96674.00;;;;8209709;28;20286;-65
2023/10/09 06:04:49;;;;;;;17.00;6.93;;;;;13.70;96680.00;;;;8188733;28;20251;-66
2023/10/09 06:13:39;;;;;;;20.42;7.25;;;;;14.20;96681.00;;;;8205389;28;20234;-66
2023/10/09 06:17:44;;;;;;;21.48;6.70;;;;;14.40;96701.00;;;;8205491;28;20941;-66
2023/10/09 06:26:23;;;;;;;17.88;6.82;;;;;14.80;96694.00;;;;8215832;28;21149;-66
2023/10/09 06:30:28;;;;;;;13.82;6.45;;;;;14.90;96702.00;;;;8209575;28;20236;-71
2023/10/09 06:34:35;;;;;;;21.15;6.15;;;;;15.00;96696.00;;;;8218316;28;20771;-70
2023/10/09 06:38:52;;;;;;;15.82;5.78;;;;;15.10;96699.00;;;;8217471;28;20215;-71
2023/10/09 06:42:55;;;;;;;17.60;6.22;;;;;15.40;96702.00;;;;8219205;28;20242;-70
2023/10/09 06:47:07;;;;;;;12.98;5.97;;;;;15.60;96703.00;;;;8214450;28;20229;-71
2023/10/09 06:51:15;;;;;;;13.20;5.40;;;;;15.90;96719.00;;;;8216525;28;20200;-70
2023/10/09 06:55:32;;;;;;;12.25;5.13;;;;;16.10;96731.00;;;;8216673;28;20226;-70
2023/10/09 07:00:51;;;;;;;14.80;5.47;;;;;16.30;96732.00;;;;8217114;28;20901;-69
2023/10/09 07:04:18;;;;;;;16.52;5.78;;;;;16.60;96726.00;;;;8216422;28;20239;-71
2023/10/09 07:08:31;;;;;;;14.10;5.68;;;;;16.80;96724.00;;;;8219090;28;20634;-71
2023/10/09 07:12:42;;;;;;;16.05;5.40;;;;;16.90;96726.00;;;;8218060;28;20444;-70
2023/10/09 07:16:57;;;;;;;19.13;5.68;;;;;17.00;96736.00;;;;8216840;28;21033;-69
2023/10/09 07:21:01;;;;;;;23.15;6.15;;;;;17.10;96724.00;;;;8217072;28;20649;-70
2023/10/09 07:25:14;;;;;;;16.38;5.82;;;;;17.20;96728.00;;;;8215304;28;20295;-70
2023/10/09 07:29:21;;;;;;;13.25;4.80;;;;;17.30;96746.00;;;;8218025;28;20211;-70
2023/10/09 07:33:50;;;;;;;23.48;5.65;;;;;17.50;96734.00;;;;8214960;28;20270;-69
2023/10/09 07:37:54;;;;;;;17.35;4.72;;;;;17.60;96757.00;;;;8216507;28;20773;-70
2023/10/09 07:42:01;;;;;;;17.10;5.20;;;;;17.70;96760.00;;;;8215116;28;20238;-70
2023/10/09 07:50:38;;;;;;;15.23;4.38;;;;;18.20;96754.00;;;;8206486;28;20199;-67
2023/10/09 07:54:49;;;;;;;14.90;4.85;;;;;18.30;96759.00;;;;8210787;28;20236;-69
2023/10/09 07:58:53;;;;;;;14.02;4.85;;;;;18.30;96753.00;;;;8216216;28;20652;-69
2023/10/09 08:03:00;;;;;;;14.30;4.72;;;;;18.30;96752.00;;;;8215605;28;20270;-69
2023/10/09 08:07:07;;;;;;;12.23;4.57;;;;;18.40;96758.00;;;;8214767;28;20298;-69
2023/10/09 08:11:59;;;;;;;13.32;5.10;;;;;18.40;96765.00;;;;8213358;28;20191;-68
2023/10/09 08:16:04;;;;;;;14.32;4.80;;;;;18.50;96766.00;;;;8214660;28;20214;-69
2023/10/09 08:20:12;;;;;;;17.20;4.72;;;;;18.70;96765.00;;;;8215517;28;20662;-69
2023/10/09 08:28:42;;;;;;;20.83;4.72;;;;;19.30;96778.00;;;;8209408;28;20203;-69
2023/10/09 08:33:00;;;;;;;22.48;5.03;;;;;19.50;96775.00;;;;8212820;28;20235;-69
2023/10/09 08:37:11;;;;;;;16.35;4.38;;;;;19.80;96770.00;;;;8216628;28;20207;-68
2023/10/09 08:41:18;;;;;;;14.82;4.68;;;;;20.10;96772.00;;;;8213663;28;20208;-70
2023/10/09 08:45:27;;;;;;;15.32;4.28;;;;;20.20;96767.00;;;;8213133;28;20659;-68
2023/10/09 08:49:33;;;;;;;16.92;4.32;;;;;20.50;96783.00;;;;8215291;28;20258;-70
2023/10/09 08:53:42;;;;;;;15.05;4.40;;;;;20.80;96790.00;;;;8216679;28;20242;-68
2023/10/09 08:57:47;;;;;;;22.00;5.28;;;;;21.20;96800.00;;;;8211067;28;20330;-68
2023/10/09 09:01:53;;;;;;;14.32;4.30;;;;;21.50;96789.00;;;;8212225;28;20343;-69
2023/10/09 09:06:00;;;;;;;19.20;4.10;;;;;21.70;96808.00;;;;8212099;28;20302;-68
2023/10/09 09:10:17;;;;;;;15.65;4.75;;;;;21.80;96806.00;;;;8209323;28;20764;-69
2023/10/09 09:14:36;;;;;;;10.82;4.05;;;;;22.00;96815.00;;;;8213095;28;20227;-66
2023/10/09 09:18:51;;;;;;;15.48;4.93;;;;;22.10;96800.00;;;;8212079;28;20210;-66
2023/10/09 09:22:57;;;;;;;15.48;4.20;;;;;22.10;96798.00;;;;8213594;28;20195;-67
2023/10/09 09:27:12;;;;;;;16.20;4.72;;;;;22.10;96802.00;;;;8212595;28;20307;-68
2023/10/09 09:31:22;;;;;;;11.70;4.13;;;;;22.10;96795.00;;;;8208394;28;20203;-66
2023/10/09 09:35:27;;;;;;;12.27;4.35;;;;;22.10;96800.00;;;;8215646;28;20354;-65
2023/10/09 09:39:30;;;;;;;15.07;4.85;;;;;22.10;96806.00;;;;8214699;28;20876;-66
2023/10/09 09:43:47;;;;;;;11.75;4.05;;;;;22.20;96811.00;;;;8213012;28;20833;-66
2023/10/09 09:47:54;;;;;;;22.45;4.90;;;;;22.20;96812.00;;;;8215436;28;20364;-66
2023/10/09 09:51:57;;;;;;;17.33;4.30;;;;;22.20;96805.00;;;;8211490;28;20207;-68
2023/10/09 09:56:02;;;;;;;13.93;4.63;;;;;22.20;96809.00;;;;8212845;28;20265;-67
2023/10/09 10:00:26;;;;;;;12.27;3.95;;;;;22.30;96817.00;;;;8220538;28;20202;-67
2023/10/09 10:04:35;;;;;;;15.35;4.40;;;;;22.30;96817.00;;;;8223577;28;20856;-67
2023/10/09 10:08:39;;;;;;;12.93;3.95;;;;;22.20;96829.00;;;;8232087;28;20203;-67
2023/10/09 10:13:01;;;;;;;13.93;4.57;;;;;22.10;96824.00;;;;8219986;28;20330;-65
2023/10/09 10:17:16;;;;;;;12.63;4.38;;;;;21.90;96820.00;;;;8220317;28;20207;-66
2023/10/09 10:21:38;;;;;;;13.05;4.65;;;;;21.80;96833.00;;;;8221691;28;20649;-66
2023/10/09 10:25:42;;;;;;;15.40;4.00;;;;;21.60;96829.00;;;;8214992;28;20362;-66
2023/10/09 10:29:50;;;;;;;14.82;4.20;;;;;21.40;96828.00;;;;8215822;28;20206;-65
2023/10/09 10:34:10;;;;;;;10.35;3.80;;;;;21.30;96822.00;;;;8219237;28;20222;-66
2023/10/09 10:38:34;;;;;;;14.05;3.88;;;;;21.20;96832.00;;;;8216105;28;20226;-66
2023/10/09 10:42:57;;;;;;;12.00;4.40;;;;;21.20;96815.00;;;;8235163;28;20840;-67
2023/10/09 10:47:01;;;;;;;14.73;4.75;;;;;20.70;96814.00;;;;8217667;28;20944;-67
2023/10/09 10:51:05;;;;;;;13.43;4.00;;;;;20.20;96813.00;;;;8221944;28;20243;-62
2023/10/09 10:55:48;;;;;;;16.73;4.57;;;;;19.90;96809.00;;;;8214925;28;20261;-63
2023/10/09 11:00:03;;;;;;;15.52;4.43;;;;;19.80;96820.00;;;;8225703;28;20207;-63
2023/10/09 11:04:12;;;;;;;9.52;4.00;;;;;19.80;96832.00;;;;8223436;28;20228;-63
2023/10/09 11:08:17;;;;;;;13.07;3.92;;;;;20.00;96828.00;;;;8220127;28;20567;-62
2023/10/09 11:12:23;;;;;;;17.27;4.22;;;;;20.40;96826.00;;;;8221751;28;20646;-62
2023/10/09 11:16:39;;;;;;;13.68;4.10;;;;;20.70;96832.00;;;;8223382;28;20228;-63
2023/10/09 11:20:56;;;;;;;17.75;4.60;;;;;20.90;96828.00;;;;8218429;28;20200;-62
2023/10/09 11:25:11;;;;;;;14.95;4.10;;;;;21.10;96832.00;;;;8219270;28;20294;-63
2023/10/09 11:29:23;;;;;;;14.43;3.92;;;;;21.30;96813.00;;;;8223113;28;20872;-62
2023/10/09 11:33:29;;;;;;;18.02;4.35;;;;;21.40;96804.00;;;;8218031;28;20311;-63
2023/10/09 11:37:38;;;;;;;12.10;4.70;;;;;21.30;96799.00;;;;8214040;28;20205;-63
2023/10/09 11:41:42;;;;;;;16.77;4.20;;;;;21.20;96779.00;;;;8226653;28;20199;-63
2023/10/09 11:45:55;;;;;;;14.95;3.85;;;;;21.10;96776.00;;;;8216243;28;20199;-64
2023/10/09 11:50:12;;;;;;;13.10;4.32;;;;;21.00;96768.00;;;;8218868;28;20200;-63
2023/10/09 11:54:31;;;;;;;13.15;3.85;;;;;21.00;96740.00;;;;8211655;28;20223;-63
2023/10/09 11:58:39;;;;;;;14.98;4.15;;;;;20.80;96740.00;;;;8213937;28;20636;-64
2023/10/09 12:02:44;;;;;;;17.95;4.22;;;;;20.70;96747.00;;;;8214876;28;20247;-63
2023/10/09 12:06:49;;;;;;;15.00;4.53;;;;;20.60;96746.00;;;;8185557;28;20207;-64
2023/10/09 12:10:54;;;;;;;16.85;4.15;;;;;20.80;96746.00;;;;8199121;28;20772;-62
2023/10/09 12:14:57;;;;;;;19.63;4.40;;;;;21.00;96758.00;;;;8187392;28;20299;-63
2023/10/09 12:19:02;;;;;;;17.85;4.70;;;;;21.20;96774.00;;;;8188308;28;20204;-63
2023/10/09 12:23:05;;;;;;;29.33;4.47;;;;;21.20;96787.00;;;;8195642;28;20239;-63
2023/10/09 12:27:11;;;;;;;13.18;4.13;;;;;21.10;96805.00;;;;8193846;28;20211;-63
2023/10/09 12:31:15;;;;;;;18.30;4.88;;;;;21.10;96781.00;;;;8190124;28;20200;-63
2023/10/09 12:35:19;;;;;;;14.18;4.03;;;;;21.20;96756.00;;;;8186556;28;20235;-63
2023/10/09 12:39:23;;;;;;;17.48;4.15;;;;;21.40;96748.00;;;;8191491;28;20212;-63
2023/10/09 12:43:27;;;;;;;15.80;4.13;;;;;21.40;96764.00;;;;8189594;28;20216;-63
2023/10/09 12:47:31;;;;;;;11.35;3.67;;;;;21.40;96808.00;;;;8192318;28;20200;-63
2023/10/09 12:51:36;;;;;;;14.45;3.72;;;;;21.10;96832.00;;;;8193246;28;20247;-62
2023/10/09 12:55:40;;;;;;;17.98;3.97;;;;;21.00;96855.00;;;;8189220;28;20231;-62
2023/10/09 12:59:45;;;;;;;16.02;4.60;;;;;20.80;96848.00;;;;8196920;28;20205;-62
2023/10/09 13:03:49;;;;;;;13.82;3.92;;;;;20.80;96849.00;;;;8209464;28;20286;-61
2023/10/09 13:07:56;;;;;;;16.40;4.32;;;;;20.80;96819.00;;;;8218876;28;20263;-62
2023/10/09 13:12:00;;;;;;;14.30;5.00;;;;;20.80;96747.00;;;;8217655;28;20680;-62
2023/10/09 13:16:05;;;;;;;15.35;4.10;;;;;20.70;96707.00;;;;8230143;28;20266;-62
2023/10/09 13:20:13;;;;;;;18.58;4.28;;;;;20.50;96725.00;;;;8222305;28;20216;-62
2023/10/09 13:24:24;;;;;;;12.93;3.80;;;;;20.60;96715.00;;;;8232826;28;20259;-62
2023/10/09 13:28:27;;;;;;;16.67;4.00;;;;;20.90;96687.00;;;;8231952;28;20565;-62
2023/10/09 13:32:33;;;;;;;17.40;4.05;;;;;21.20;96709.00;;;;8227972;28;20338;-62
2023/10/09 13:36:37;;;;;;;20.58;4.75;;;;;21.40;96701.00;;;;8229337;28;20281;-62
2023/10/09 13:40:41;;;;;;;16.85;3.80;;;;;21.50;96709.00;;;;8238687;28;20205;-63
2023/10/09 13:44:48;;;;;;;14.68;4.00;;;;;21.50;96692.00;;;;8227014;28;20223;-62
2023/10/09 13:48:52;;;;;;;14.27;3.85;;;;;21.50;96686.00;;;;8225949;28;20232;-62
2023/10/09 13:52:56;;;;;;;20.95;4.82;;;;;21.50;96663.00;;;;8226341;28;20213;-62
2023/10/09 13:57:04;;;;;;;13.50;4.35;;;;;21.50;96669.00;;;;8227292;28;20238;-63
2023/10/09 14:01:08;;;;;;;24.70;4.57;;;;;21.50;96658.00;;;;8228128;28;20265;-63
2023/10/09 14:05:11;;;;;;;11.70;3.88;;;;;21.50;96671.00;;;;8218036;28;20235;-61
2023/10/09 14:13:33;;;;;;;14.23;4.18;;;;;21.60;96655.00;;;;8228105;28;20194;-62
2023/10/09 14:17:36;;;;;;;17.13;4.05;;;;;21.60;96647.00;;;;8232421;28;20836;-61
2023/10/09 14:21:40;;;;;;;11.77;3.85;;;;;21.80;96653.00;;;;8222633;28;20724;-61
2023/10/09 14:25:44;;;;;;;18.00;4.50;;;;;21.90;96660.00;;;;8221981;28;20366;-62
2023/10/09 14:29:49;;;;;;;15.13;4.13;;;;;22.10;96649.00;;;;8208613;28;20210;-62
2023/10/09 14:33:52;;;;;;;11.50;4.38;;;;;22.10;96668.00;;;;8228728;28;20709;-62
2023/10/09 14:37:55;;;;;;;17.95;4.60;;;;;22.10;96667.00;;;;8227503;28;20206;-62
2023/10/09 14:41:59;;;;;;;20.50;4.20;;;;;22.20;96669.00;;;;8232379;28;20534;-62
2023/10/09 14:46:10;;;;;;;18.77;4.40;;;;;22.10;96665.00;;;;8226745;28;20229;-62
2023/10/09 14:50:14;;;;;;;21.83;3.90;;;;;22.10;96663.00;;;;8224808;28;20210;-65
2023/10/09 14:54:17;;;;;;;14.75;4.13;;;;;22.00;96663.00;;;;8226622;28;20583;-63
2023/10/09 14:58:23;;;;;;;11.50;3.50;;;;;22.10;96668.00;;;;8217267;28;20206;-64
2023/10/09 15:02:28;;;;;;;22.42;4.70;;;;;21.90;96671.00;;;;8219654;28;20226;-64
2023/10/09 15:06:32;;;;;;;20.40;4.72;;;;;21.90;96678.00;;;;8215852;28;20305;-64
2023/10/09 15:10:36;;;;;;;26.33;4.70;;;;;21.80;96681.00;;;;8209321;28;20211;-64
2023/10/09 15:14:42;;;;;;;16.33;4.15;;;;;21.70;96684.00;;;;8203910;28;20246;-64
2023/10/09 15:18:48;;;;;;;12.15;3.90;;;;;21.60;96697.00;;;;8214719;28;20269;-64
2023/10/09 15:22:51;;;;;;;12.80;3.97;;;;;21.50;96696.00;;;;8222763;28;20238;-64
2023/10/09 15:26:57;;;;;;;17.80;4.22;;;;;21.50;96691.00;;;;8220407;28;20769;-64
2023/10/09 15:31:00;;;;;;;15.77;4.18;;;;;21.40;96693.00;;;;8218396;28;20298;-64
2023/10/09 15:35:06;;;;;;;19.90;4.97;;;;;21.30;96683.00;;;;8220601;28;20261;-64
2023/10/09 15:39:11;;;;;;;17.55;4.80;;;;;21.20;96685.00;;;;8223552;28;20642;-64
2023/10/09 15:43:16;;;;;;;16.05;3.80;;;;;21.20;96685.00;;;;8217773;28;20204;-64
2023/10/09 15:47:21;;;;;;;19.40;4.45;;;;;21.10;96685.00;;;;8219198;28;20223;-64
2023/10/09 15:51:26;;;;;;;15.85;3.97;;;;;21.00;96676.00;;;;8216796;28;20207;-64
2023/10/09 15:55:29;;;;;;;19.65;4.32;;;;;20.90;96690.00;;;;8224500;28;20592;-64
2023/10/09 15:59:32;;;;;;;20.92;3.88;;;;;20.80;96700.00;;;;8216693;28;20291;-64
2023/10/09 16:03:35;;;;;;;15.18;4.65;;;;;20.80;96695.00;;;;8219444;28;20223;-64
2023/10/09 16:07:40;;;;;;;14.25;4.55;;;;;20.70;96701.00;;;;8216571;28;20555;-64
2023/10/09 16:11:44;;;;;;;14.55;3.88;;;;;20.60;96710.00;;;;8214751;28;20210;-63
2023/10/09 16:15:48;;;;;;;25.70;4.65;;;;;20.50;96711.00;;;;8211993;28;20249;-64
2023/10/09 16:19:51;;;;;;;17.02;4.75;;;;;20.40;96720.00;;;;8217882;28;20203;-64
2023/10/09 16:23:59;;;;;;;19.10;4.65;;;;;20.20;96716.00;;;;8215647;28;20235;-66
2023/10/09 16:28:03;;;;;;;10.63;4.45;;;;;20.10;96719.00;;;;8215613;28;20200;-64
2023/10/09 16:32:07;;;;;;;18.35;4.47;;;;;20.10;96712.00;;;;8217532;28;20673;-65
2023/10/09 16:36:10;;;;;;;25.98;5.20;;;;;20.00;96711.00;;;;8216389;28;20235;-65
2023/10/09 16:40:20;;;;;;;26.92;7.70;;;;;19.90;96720.00;;;;8212403;28;20638;-64
2023/10/09 16:44:24;;;;;;;24.17;7.20;;;;;19.70;96731.00;;;;8211523;28;20258;-64
2023/10/09 16:48:30;;;;;;;15.57;5.20;;;;;19.60;96736.00;;;;8214098;28;20203;-65
2023/10/09 16:52:37;;;;;;;19.88;4.70;;;;;19.60;96727.00;;;;8216108;28;20547;-65
2023/10/09 16:56:43;;;;;;;26.05;5.72;;;;;19.50;96711.00;;;;8210453;28;20233;-65
2023/10/09 17:00:47;;;;;;;27.17;5.63;;;;;19.40;96710.00;;;;8215967;28;20676;-65
2023/10/09 17:04:52;;;;;;;25.45;5.55;;;;;19.30;96711.00;;;;8216625;28;20266;-63
2023/10/09 17:08:56;;;;;;;19.40;6.57;;;;;19.20;96705.00;;;;8215526;28;20204;-66
2023/10/09 17:13:03;;;;;;;27.27;8.38;;;;;19.10;96695.00;;;;8220879;28;20202;-63
2023/10/09 17:17:08;;;;;;;26.20;8.13;;;;;18.90;96688.00;;;;8225637;28;20223;-66
2023/10/09 17:21:13;;;;;;;38.15;14.05;;;;;18.70;96686.00;;;;8226030;28;20204;-64
2023/10/09 17:25:16;;;;;;;21.50;8.60;;;;;18.60;96693.00;;;;8219963;28;20303;-63
2023/10/09 17:29:21;;;;;;;30.40;12.63;;;;;18.40;96675.00;;;;8225517;28;20202;-64
2023/10/09 17:33:24;;;;;;;30.02;8.93;;;;;18.40;96673.00;;;;8216381;28;20200;-64
2023/10/09 17:37:27;;;;;;;27.73;7.10;;;;;18.30;96679.00;;;;8224842;28;20589;-64
2023/10/09 17:41:34;;;;;;;17.35;5.20;;;;;18.30;96680.00;;;;8226297;28;20684;-65
2023/10/09 17:45:41;;;;;;;17.58;5.90;;;;;18.20;96699.00;;;;8224760;28;20221;-64
2023/10/09 17:49:44;;;;;;;14.55;4.80;;;;;18.30;96705.00;;;;8214154;28;20231;-65
2023/10/09 17:53:47;;;;;;;16.65;5.78;;;;;18.30;96698.00;;;;8215799;28;20199;-65
2023/10/09 17:57:50;;;;;;;21.95;6.18;;;;;18.30;96688.00;;;;8210235;28;20309;-65
2023/10/09 18:01:56;;;;;;;22.30;6.22;;;;;18.30;96691.00;;;;8212245;28;20746;-65
2023/10/09 18:06:00;;;;;;;23.38;5.45;;;;;18.30;96681.00;;;;8204805;28;20580;-65
2023/10/09 18:10:05;;;;;;;20.95;5.93;;;;;18.30;96700.00;;;;8211029;28;20909;-65
2023/10/09 18:14:08;;;;;;;30.15;5.03;;;;;18.30;96709.00;;;;8213767;28;20210;-65
2023/10/09 18:18:19;;;;;;;15.30;4.65;;;;;18.20;96723.00;;;;8222956;28;20274;-65
2023/10/09 18:22:24;;;;;;;20.27;5.72;;;;;18.20;96730.00;;;;8235968;28;20240;-65
2023/10/09 18:26:30;;;;;;;20.17;5.28;;;;;18.20;96725.00;;;;8226148;28;20199;-65
2023/10/09 18:30:38;;;;;;;15.88;5.40;;;;;18.20;96730.00;;;;8223988;28;20262;-65
2023/10/09 18:34:43;;;;;;;17.23;4.85;;;;;18.20;96722.00;;;;8229852;28;20227;-65
2023/10/09 18:38:50;;;;;;;20.85;4.78;;;;;18.20;96716.00;;;;8215897;28;20281;-65
2023/10/09 18:42:57;;;;;;;19.55;5.45;;;;;18.10;96715.00;;;;8207655;28;20204;-65
2023/10/09 18:47:00;;;;;;;16.25;4.78;;;;;18.10;96712.00;;;;8199275;28;20586;-65
2023/10/09 18:51:07;;;;;;;17.85;5.00;;;;;18.00;96702.00;;;;8212482;28;20211;-65
2023/10/09 18:55:12;;;;;;;19.67;4.97;;;;;18.00;96704.00;;;;8218333;28;20204;-65
2023/10/09 18:59:15;;;;;;;13.15;4.75;;;;;18.00;96711.00;;;;8225461;28;20239;-65
2023/10/09 19:03:20;;;;;;;20.38;5.15;;;;;17.90;96727.00;;;;8228106;28;20239;-65
2023/10/09 19:07:25;;;;;;;16.48;5.18;;;;;17.90;96721.00;;;;8222971;28;20196;-65
2023/10/09 19:11:29;;;;;;;13.30;4.78;;;;;17.90;96719.00;;;;8232634;28;20206;-65
2023/10/09 19:15:32;;;;;;;16.92;5.15;;;;;17.90;96710.00;;;;8220150;28;20231;-65
2023/10/09 19:19:36;;;;;;;27.27;5.28;;;;;17.90;96734.00;;;;8228030;28;20228;-65
2023/10/09 19:23:44;;;;;;;23.02;5.18;;;;;17.90;96718.00;;;;8222508;28;20206;-65
2023/10/09 19:27:48;;;;;;;18.23;5.05;;;;;17.90;96729.00;;;;8211954;28;20222;-65
2023/10/09 19:31:51;;;;;;;15.27;5.22;;;;;17.90;96730.00;;;;8212922;28;20227;-65
2023/10/09 19:36:02;;;;;;;16.02;5.63;;;;;17.80;96730.00;;;;8221427;28;20226;-65
2023/10/09 19:40:09;;;;;;;19.77;6.25;;;;;17.70;96733.00;;;;8218595;28;20733;-65
2023/10/09 19:44:13;;;;;;;18.08;4.97;;;;;17.60;96750.00;;;;8222166;28;20195;-65
2023/10/09 19:48:16;;;;;;;22.35;6.13;;;;;17.50;96743.00;;;;8221909;28;20204;-65
2023/10/09 19:52:19;;;;;;;17.90;5.80;;;;;17.40;96741.00;;;;8214870;28;20201;-65
2023/10/09 19:56:24;;;;;;;18.38;5.30;;;;;17.30;96733.00;;;;8215536;28;20655;-65
2023/10/09 20:00:31;;;;;;;13.25;5.50;;;;;17.20;96755.00;;;;8211260;28;20993;-65
2023/10/09 20:04:34;;;;;;;17.38;5.22;;;;;17.10;96757.00;;;;8208060;28;20318;-65
2023/10/09 20:08:37;;;;;;;17.02;5.43;;;;;17.10;96763.00;;;;8232977;28;20215;-65
2023/10/09 20:12:42;;;;;;;18.00;6.03;;;;;17.30;96750.00;;;;8216168;28;20202;-66
2023/10/09 20:16:48;;;;;;;14.55;5.25;;;;;17.50;96746.00;;;;8227122;28;20229;-66
2023/10/09 20:20:51;;;;;;;19.35;5.28;;;;;17.70;96749.00;;;;8217901;28;20203;-66
2023/10/09 20:24:54;;;;;;;14.52;4.85;;;;;17.90;96755.00;;;;8224395;28;20641;-66
2023/10/09 20:28:58;;;;;;;22.40;5.97;;;;;18.00;96757.00;;;;8218481;28;20220;-67
2023/10/09 20:33:02;;;;;;;17.30;5.45;;;;;17.90;96764.00;;;;8228347;28;20212;-66
2023/10/09 20:37:05;;;;;;;16.50;4.80;;;;;17.80;96761.00;;;;8230957;28;20235;-66
2023/10/09 20:41:09;;;;;;;13.82;5.38;;;;;17.70;96760.00;;;;8226176;28;20199;-65
2023/10/09 20:45:14;;;;;;;17.73;5.03;;;;;17.60;96756.00;;;;8219810;28;20812;-66
2023/10/09 20:49:18;;;;;;;15.98;5.45;;;;;17.70;96755.00;;;;8227774;28;20637;-65
2023/10/09 20:53:21;;;;;;;15.10;4.72;;;;;17.80;96760.00;;;;8222364;28;20290;-66
2023/10/09 20:57:24;;;;;;;19.80;5.68;;;;;17.80;96761.00;;;;8229544;28;20241;-65